• vieta
  • image
  • image
  • image
mod_vvisit_countermod_vvisit_countermod_vvisit_countermod_vvisit_countermod_vvisit_countermod_vvisit_counter
mod_vvisit_counterŠiandien839
mod_vvisit_counterVakar534
mod_vvisit_counterŠią savaitę2012
mod_vvisit_counterPraėjusią savaitę5599
mod_vvisit_counterŠį mėnesį11858
mod_vvisit_counterPraėjusį mėnesį23031
mod_vvisit_counterViso997815

Mes turime: 37 svečius online
Jūsų IP: 54.92.163.105
 , 
Šiandien: Spa 16, 2018
Oro uostas / Administracinė informacija / Viešieji pirkimai

Viešieji pirkimai

 

Čia galite plačiau susipažinti su SĮ Šiaulių oro uostas vykdomais viešaisiais pirkimais.

 

SĮ Šiaulių oro uostas mažos vertės pirkimų tvarkos aprašo aktuali redakcija

 

Viešųjų pirkimų planas pateiktas Centriniame viešųjų pirkimų portale, adresu:

http://www.eviesiejipirkimai.lt

Šiandien

Trečiadienis, 17 Spalis 2018

Orų prognozė aviacijai

[source: ADDS]
METAR
EYSA 162050Z 22006KT CAVOK 10/06 Q1023 BLU NOSIG =
TAF EYSA 162000Z 1621/1706 VRB04KT CAVOK
TAF
TAF EYSA 162000Z 1621/1706 VRB04KT CAVOK =
SR / SS: 05:02 / 15:24 UTC (EYSA 2018-10-17)

Paieška

Lankytojai

Mes turime 37 svečius online

tic logo lt